sensor_id;sensor_type;location;lat;lon;timestamp;temperature;humidity
71254;HTU21D;59019;47.638;18.966;2022-12-18T00:04:02;-3.80;98.44
71254;HTU21D;59019;47.638;18.966;2022-12-18T00:06:48;-3.83;98.39
71254;HTU21D;59019;47.638;18.966;2022-12-18T00:09:34;-3.80;98.39
71254;HTU21D;59019;47.638;18.966;2022-12-18T00:12:19;-3.83;98.30
71254;HTU21D;59019;47.638;18.966;2022-12-18T00:15:05;-3.80;98.43
71254;HTU21D;59019;47.638;18.966;2022-12-18T00:17:51;-3.86;98.31
71254;HTU21D;59019;47.638;18.966;2022-12-18T00:20:38;-3.83;98.16
71254;HTU21D;59019;47.638;18.966;2022-12-18T00:23:23;-3.82;97.96
71254;HTU21D;59019;47.638;18.966;2022-12-18T00:26:15;-3.90;97.96
71254;HTU21D;59019;47.638;18.966;2022-12-18T00:29:05;-3.98;98.39
71254;HTU21D;59019;47.638;18.966;2022-12-18T00:31:51;-4.01;98.51
71254;HTU21D;59019;47.638;18.966;2022-12-18T00:34:36;-4.06;98.36
71254;HTU21D;59019;47.638;18.966;2022-12-18T00:37:22;-4.10;98.68
71254;HTU21D;59019;47.638;18.966;2022-12-18T00:40:08;-4.09;98.77
71254;HTU21D;59019;47.638;18.966;2022-12-18T00:42:54;-4.15;99.00
71254;HTU21D;59019;47.638;18.966;2022-12-18T00:45:42;-4.11;99.00
71254;HTU21D;59019;47.638;18.966;2022-12-18T00:48:28;-4.15;98.68
71254;HTU21D;59019;47.638;18.966;2022-12-18T00:51:14;-4.11;98.90
71254;HTU21D;59019;47.638;18.966;2022-12-18T00:53:59;-4.20;99.06
71254;HTU21D;59019;47.638;18.966;2022-12-18T00:56:45;-4.17;99.00
71254;HTU21D;59019;47.638;18.966;2022-12-18T00:59:30;-4.16;98.81
71254;HTU21D;59019;47.638;18.966;2022-12-18T01:02:16;-4.10;98.83
71254;HTU21D;59019;47.638;18.966;2022-12-18T01:05:01;-4.07;98.51
71254;HTU21D;59019;47.638;18.966;2022-12-18T01:07:47;-4.09;98.78
71254;HTU21D;59019;47.638;18.966;2022-12-18T01:10:32;-4.15;98.93
71254;HTU21D;59019;47.638;18.966;2022-12-18T01:13:18;-4.11;99.09
71254;HTU21D;59019;47.638;18.966;2022-12-18T01:16:04;-4.08;99.69
71254;HTU21D;59019;47.638;18.966;2022-12-18T01:18:54;-4.10;99.58
71254;HTU21D;59019;47.638;18.966;2022-12-18T01:21:40;-3.97;100.38
71254;HTU21D;59019;47.638;18.966;2022-12-18T01:24:25;-4.11;99.77
71254;HTU21D;59019;47.638;18.966;2022-12-18T01:27:11;-4.12;98.77
71254;HTU21D;59019;47.638;18.966;2022-12-18T01:29:56;-4.11;98.28
71254;HTU21D;59019;47.638;18.966;2022-12-18T01:32:42;-4.12;97.97
71254;HTU21D;59019;47.638;18.966;2022-12-18T01:35:27;-4.04;98.19
71254;HTU21D;59019;47.638;18.966;2022-12-18T01:38:13;-4.15;97.93
71254;HTU21D;59019;47.638;18.966;2022-12-18T01:40:59;-4.15;98.01
71254;HTU21D;59019;47.638;18.966;2022-12-18T01:46:17;-4.25;98.41
71254;HTU21D;59019;47.638;18.966;2022-12-18T01:48:44;-4.19;98.28
71254;HTU21D;59019;47.638;18.966;2022-12-18T01:51:12;-4.25;98.24
71254;HTU21D;59019;47.638;18.966;2022-12-18T01:53:41;-4.26;98.30
71254;HTU21D;59019;47.638;18.966;2022-12-18T01:56:08;-4.30;98.23
71254;HTU21D;59019;47.638;18.966;2022-12-18T02:01:11;-4.37;98.74
71254;HTU21D;59019;47.638;18.966;2022-12-18T02:03:43;-4.25;98.54
71254;HTU21D;59019;47.638;18.966;2022-12-18T02:06:37;-4.30;98.19
71254;HTU21D;59019;47.638;18.966;2022-12-18T02:09:23;-4.31;98.22
71254;HTU21D;59019;47.638;18.966;2022-12-18T02:12:01;-4.27;98.05
71254;HTU21D;59019;47.638;18.966;2022-12-18T02:14:41;-4.30;97.93
71254;HTU21D;59019;47.638;18.966;2022-12-18T02:28:04;-4.17;97.38
71254;HTU21D;59019;47.638;18.966;2022-12-18T02:30:35;-4.17;97.27
71254;HTU21D;59019;47.638;18.966;2022-12-18T02:33:04;-4.19;97.36
71254;HTU21D;59019;47.638;18.966;2022-12-18T02:35:30;-4.20;97.36
71254;HTU21D;59019;47.638;18.966;2022-12-18T02:37:58;-4.20;97.46
71254;HTU21D;59019;47.638;18.966;2022-12-18T02:40:26;-4.28;97.29
71254;HTU21D;59019;47.638;18.966;2022-12-18T02:42:53;-4.20;97.37
71254;HTU21D;59019;47.638;18.966;2022-12-18T02:45:20;-4.23;97.29
71254;HTU21D;59019;47.638;18.966;2022-12-18T02:48:07;-4.28;97.32
71254;HTU21D;59019;47.638;18.966;2022-12-18T02:53:58;-4.38;97.79
71254;HTU21D;59019;47.638;18.966;2022-12-18T02:56:53;-4.24;99.84
71254;HTU21D;59019;47.638;18.966;2022-12-18T02:59:48;-4.19;100.58
71254;HTU21D;59019;47.638;18.966;2022-12-18T03:05:58;-4.13;101.46
71254;HTU21D;59019;47.638;18.966;2022-12-18T03:08:49;-4.11;101.51
71254;HTU21D;59019;47.638;18.966;2022-12-18T03:11:40;-4.22;100.62
71254;HTU21D;59019;47.638;18.966;2022-12-18T03:17:56;-4.36;98.48
71254;HTU21D;59019;47.638;18.966;2022-12-18T03:20:45;-4.30;98.16
71254;HTU21D;59019;47.638;18.966;2022-12-18T03:23:36;-4.32;97.56
71254;HTU21D;59019;47.638;18.966;2022-12-18T03:26:25;-4.32;97.41
71254;HTU21D;59019;47.638;18.966;2022-12-18T03:29:21;-4.39;97.20
71254;HTU21D;59019;47.638;18.966;2022-12-18T03:32:15;-4.37;97.23
71254;HTU21D;59019;47.638;18.966;2022-12-18T03:35:05;-4.35;97.03
71254;HTU21D;59019;47.638;18.966;2022-12-18T03:37:51;-4.39;96.66
71254;HTU21D;59019;47.638;18.966;2022-12-18T03:40:59;-4.40;96.52
71254;HTU21D;59019;47.638;18.966;2022-12-18T03:44:03;-4.48;96.56
71254;HTU21D;59019;47.638;18.966;2022-12-18T03:47:28;-4.54;96.81
71254;HTU21D;59019;47.638;18.966;2022-12-18T03:53:31;-4.57;97.47
71254;HTU21D;59019;47.638;18.966;2022-12-18T03:56:21;-4.61;98.00
71254;HTU21D;59019;47.638;18.966;2022-12-18T03:59:10;-4.40;99.16
71254;HTU21D;59019;47.638;18.966;2022-12-18T04:01:58;-4.26;101.21
71254;HTU21D;59019;47.638;18.966;2022-12-18T04:04:46;-4.28;101.34
71254;HTU21D;59019;47.638;18.966;2022-12-18T04:07:17;-4.24;101.03
71254;HTU21D;59019;47.638;18.966;2022-12-18T04:09:44;-4.20;100.78
71254;HTU21D;59019;47.638;18.966;2022-12-18T04:12:11;-4.21;100.84
71254;HTU21D;59019;47.638;18.966;2022-12-18T04:14:36;-4.13;100.74
71254;HTU21D;59019;47.638;18.966;2022-12-18T04:17:02;-4.20;99.92
71254;HTU21D;59019;47.638;18.966;2022-12-18T04:19:28;-4.35;98.51
71254;HTU21D;59019;47.638;18.966;2022-12-18T04:21:54;-4.32;98.06
71254;HTU21D;59019;47.638;18.966;2022-12-18T04:24:20;-4.35;97.62
71254;HTU21D;59019;47.638;18.966;2022-12-18T04:26:45;-4.27;97.26
71254;HTU21D;59019;47.638;18.966;2022-12-18T04:29:11;-4.25;96.77
71254;HTU21D;59019;47.638;18.966;2022-12-18T04:31:37;-4.30;96.20
71254;HTU21D;59019;47.638;18.966;2022-12-18T04:34:03;-4.43;95.85
71254;HTU21D;59019;47.638;18.966;2022-12-18T04:36:28;-4.48;95.66
71254;HTU21D;59019;47.638;18.966;2022-12-18T04:38:54;-4.51;95.56
71254;HTU21D;59019;47.638;18.966;2022-12-18T04:41:20;-4.53;95.61
71254;HTU21D;59019;47.638;18.966;2022-12-18T04:43:46;-4.55;95.68
71254;HTU21D;59019;47.638;18.966;2022-12-18T04:46:11;-4.59;95.82
71254;HTU21D;59019;47.638;18.966;2022-12-18T04:48:38;-4.58;96.29
71254;HTU21D;59019;47.638;18.966;2022-12-18T04:51:05;-4.67;96.46
71254;HTU21D;59019;47.638;18.966;2022-12-18T04:53:31;-4.72;96.66
71254;HTU21D;59019;47.638;18.966;2022-12-18T04:56:09;-4.63;97.34
71254;HTU21D;59019;47.638;18.966;2022-12-18T04:58:37;-4.72;97.52
71254;HTU21D;59019;47.638;18.966;2022-12-18T05:01:03;-4.75;98.00
71254;HTU21D;59019;47.638;18.966;2022-12-18T05:03:29;-4.60;98.84
71254;HTU21D;59019;47.638;18.966;2022-12-18T05:05:55;-4.57;100.30
71254;HTU21D;59019;47.638;18.966;2022-12-18T05:08:40;-4.48;101.16
71254;HTU21D;59019;47.638;18.966;2022-12-18T05:11:26;-4.40;101.52
71254;HTU21D;59019;47.638;18.966;2022-12-18T05:13:51;-4.32;101.51
71254;HTU21D;59019;47.638;18.966;2022-12-18T05:16:17;-4.35;101.77
71254;HTU21D;59019;47.638;18.966;2022-12-18T05:18:43;-4.28;101.25
71254;HTU21D;59019;47.638;18.966;2022-12-18T05:21:08;-4.36;100.69
71254;HTU21D;59019;47.638;18.966;2022-12-18T05:23:34;-4.38;100.18
71254;HTU21D;59019;47.638;18.966;2022-12-18T05:26:02;-4.45;99.25
71254;HTU21D;59019;47.638;18.966;2022-12-18T05:28:29;-4.49;99.18
71254;HTU21D;59019;47.638;18.966;2022-12-18T05:30:58;-4.49;98.76
71254;HTU21D;59019;47.638;18.966;2022-12-18T05:33:26;-4.51;98.47
71254;HTU21D;59019;47.638;18.966;2022-12-18T05:35:57;-4.58;98.32
71254;HTU21D;59019;47.638;18.966;2022-12-18T05:38:25;-4.59;98.40
71254;HTU21D;59019;47.638;18.966;2022-12-18T05:40:51;-4.49;99.00
71254;HTU21D;59019;47.638;18.966;2022-12-18T05:43:19;-4.51;99.52
71254;HTU21D;59019;47.638;18.966;2022-12-18T05:45:45;-4.56;98.69
71254;HTU21D;59019;47.638;18.966;2022-12-18T05:48:12;-4.63;97.71
71254;HTU21D;59019;47.638;18.966;2022-12-18T05:50:39;-4.63;97.06
71254;HTU21D;59019;47.638;18.966;2022-12-18T05:53:07;-4.67;96.46
71254;HTU21D;59019;47.638;18.966;2022-12-18T05:55:53;-4.76;96.01
71254;HTU21D;59019;47.638;18.966;2022-12-18T05:58:39;-4.87;95.59
71254;HTU21D;59019;47.638;18.966;2022-12-18T06:01:26;-5.00;95.31
71254;HTU21D;59019;47.638;18.966;2022-12-18T06:04:11;-5.04;95.06
71254;HTU21D;59019;47.638;18.966;2022-12-18T06:06:57;-5.13;94.79
71254;HTU21D;59019;47.638;18.966;2022-12-18T06:09:43;-5.20;95.13
71254;HTU21D;59019;47.638;18.966;2022-12-18T06:12:28;-5.22;97.06
71254;HTU21D;59019;47.638;18.966;2022-12-18T06:15:14;-5.22;99.31
71254;HTU21D;59019;47.638;18.966;2022-12-18T06:18:00;-5.26;100.34
71254;HTU21D;59019;47.638;18.966;2022-12-18T06:20:54;-5.30;100.31
71254;HTU21D;59019;47.638;18.966;2022-12-18T06:23:40;-5.27;99.93
71254;HTU21D;59019;47.638;18.966;2022-12-18T06:26:27;-5.19;100.44
71254;HTU21D;59019;47.638;18.966;2022-12-18T06:29:12;-5.23;100.12
71254;HTU21D;59019;47.638;18.966;2022-12-18T06:31:58;-5.20;99.64
71254;HTU21D;59019;47.638;18.966;2022-12-18T06:34:43;-5.23;98.89
71254;HTU21D;59019;47.638;18.966;2022-12-18T06:37:30;-5.31;97.65
71254;HTU21D;59019;47.638;18.966;2022-12-18T06:40:16;-5.34;96.65
71254;HTU21D;59019;47.638;18.966;2022-12-18T06:43:02;-5.43;95.20
71254;HTU21D;59019;47.638;18.966;2022-12-18T06:45:47;-5.55;94.21
71254;HTU21D;59019;47.638;18.966;2022-12-18T06:48:37;-5.62;93.54
71254;HTU21D;59019;47.638;18.966;2022-12-18T06:51:23;-5.68;93.39
71254;HTU21D;59019;47.638;18.966;2022-12-18T06:54:09;-5.79;92.99
71254;HTU21D;59019;47.638;18.966;2022-12-18T06:56:55;-5.76;94.73
71254;HTU21D;59019;47.638;18.966;2022-12-18T06:59:40;-5.72;96.78
71254;HTU21D;59019;47.638;18.966;2022-12-18T07:02:26;-5.72;97.54
71254;HTU21D;59019;47.638;18.966;2022-12-18T07:05:11;-5.72;97.03
71254;HTU21D;59019;47.638;18.966;2022-12-18T07:07:57;-5.71;96.79
71254;HTU21D;59019;47.638;18.966;2022-12-18T07:10:43;-5.72;96.87
71254;HTU21D;59019;47.638;18.966;2022-12-18T07:13:28;-5.71;96.64
71254;HTU21D;59019;47.638;18.966;2022-12-18T07:16:16;-5.72;96.32
71254;HTU21D;59019;47.638;18.966;2022-12-18T07:19:02;-5.76;95.99
71254;HTU21D;59019;47.638;18.966;2022-12-18T07:21:49;-5.90;95.13
71254;HTU21D;59019;47.638;18.966;2022-12-18T07:24:36;-5.90;94.71
71254;HTU21D;59019;47.638;18.966;2022-12-18T07:27:22;-5.87;94.51
71254;HTU21D;59019;47.638;18.966;2022-12-18T07:30:08;-5.89;94.40
71254;HTU21D;59019;47.638;18.966;2022-12-18T07:32:54;-5.88;94.76
71254;HTU21D;59019;47.638;18.966;2022-12-18T07:35:39;-5.85;95.11
71254;HTU21D;59019;47.638;18.966;2022-12-18T07:38:25;-5.83;95.17
71254;HTU21D;59019;47.638;18.966;2022-12-18T07:41:12;-5.76;96.10
71254;HTU21D;59019;47.638;18.966;2022-12-18T07:43:58;-5.68;96.49
71254;HTU21D;59019;47.638;18.966;2022-12-18T07:46:43;-5.62;97.52
71254;HTU21D;59019;47.638;18.966;2022-12-18T07:49:28;-5.55;98.13
71254;HTU21D;59019;47.638;18.966;2022-12-18T07:52:14;-5.49;98.64
71254;HTU21D;59019;47.638;18.966;2022-12-18T07:55:00;-5.42;99.28
71254;HTU21D;59019;47.638;18.966;2022-12-18T07:57:45;-5.32;99.16
71254;HTU21D;59019;47.638;18.966;2022-12-18T08:00:31;-5.24;98.95
71254;HTU21D;59019;47.638;18.966;2022-12-18T08:03:16;-5.10;99.96
71254;HTU21D;59019;47.638;18.966;2022-12-18T08:06:04;-5.01;99.93
71254;HTU21D;59019;47.638;18.966;2022-12-18T08:08:53;-4.84;99.01
71254;HTU21D;59019;47.638;18.966;2022-12-18T08:11:39;-4.79;98.57
71254;HTU21D;59019;47.638;18.966;2022-12-18T08:14:25;-4.66;98.29
71254;HTU21D;59019;47.638;18.966;2022-12-18T08:17:10;-4.58;97.98
71254;HTU21D;59019;47.638;18.966;2022-12-18T08:19:56;-4.42;97.65
71254;HTU21D;59019;47.638;18.966;2022-12-18T08:22:42;-4.32;97.03
71254;HTU21D;59019;47.638;18.966;2022-12-18T08:25:27;-4.24;96.73
71254;HTU21D;59019;47.638;18.966;2022-12-18T08:28:13;-4.22;96.17
71254;HTU21D;59019;47.638;18.966;2022-12-18T08:30:58;-4.20;95.93
71254;HTU21D;59019;47.638;18.966;2022-12-18T08:33:44;-4.19;97.42
71254;HTU21D;59019;47.638;18.966;2022-12-18T08:36:28;-4.11;99.07
71254;HTU21D;59019;47.638;18.966;2022-12-18T08:38:55;-4.06;99.84
71254;HTU21D;59019;47.638;18.966;2022-12-18T08:41:21;-4.01;99.67
71254;HTU21D;59019;47.638;18.966;2022-12-18T08:43:47;-3.95;99.49
71254;HTU21D;59019;47.638;18.966;2022-12-18T08:46:39;-3.89;99.64
71254;HTU21D;59019;47.638;18.966;2022-12-18T08:49:05;-3.84;99.68
71254;HTU21D;59019;47.638;18.966;2022-12-18T08:51:32;-3.79;99.09
71254;HTU21D;59019;47.638;18.966;2022-12-18T08:53:58;-3.75;98.57
71254;HTU21D;59019;47.638;18.966;2022-12-18T08:56:23;-3.70;98.02
71254;HTU21D;59019;47.638;18.966;2022-12-18T08:58:52;-3.66;97.64
71254;HTU21D;59019;47.638;18.966;2022-12-18T09:01:17;-3.58;97.30
71254;HTU21D;59019;47.638;18.966;2022-12-18T09:03:43;-3.51;96.88
71254;HTU21D;59019;47.638;18.966;2022-12-18T09:06:08;-3.43;96.70
71254;HTU21D;59019;47.638;18.966;2022-12-18T09:08:34;-3.33;96.67
71254;HTU21D;59019;47.638;18.966;2022-12-18T09:11:00;-3.24;96.56
71254;HTU21D;59019;47.638;18.966;2022-12-18T09:13:25;-3.11;96.53
71254;HTU21D;59019;47.638;18.966;2022-12-18T09:15:53;-3.01;96.33
71254;HTU21D;59019;47.638;18.966;2022-12-18T09:18:23;-2.86;97.31
71254;HTU21D;59019;47.638;18.966;2022-12-18T09:20:49;-2.75;98.64
71254;HTU21D;59019;47.638;18.966;2022-12-18T09:23:18;-2.67;98.49
71254;HTU21D;59019;47.638;18.966;2022-12-18T09:25:46;-2.61;97.29
71254;HTU21D;59019;47.638;18.966;2022-12-18T09:28:14;-2.45;97.29
71254;HTU21D;59019;47.638;18.966;2022-12-18T09:30:46;-2.22;96.27
71254;HTU21D;59019;47.638;18.966;2022-12-18T09:33:12;-2.19;94.73
71254;HTU21D;59019;47.638;18.966;2022-12-18T09:35:39;-2.15;94.82
71254;HTU21D;59019;47.638;18.966;2022-12-18T09:38:05;-2.07;95.00
71254;HTU21D;59019;47.638;18.966;2022-12-18T09:40:36;-2.01;94.69
71254;HTU21D;59019;47.638;18.966;2022-12-18T09:43:04;-1.94;94.45
71254;HTU21D;59019;47.638;18.966;2022-12-18T09:45:39;-1.82;94.41
71254;HTU21D;59019;47.638;18.966;2022-12-18T09:51:16;-1.13;98.62
71254;HTU21D;59019;47.638;18.966;2022-12-18T09:54:07;-0.94;97.25
71254;HTU21D;59019;47.638;18.966;2022-12-18T09:56:35;-0.68;95.45
71254;HTU21D;59019;47.638;18.966;2022-12-18T09:59:03;-0.51;96.04
71254;HTU21D;59019;47.638;18.966;2022-12-18T10:01:31;-0.60;92.09
71254;HTU21D;59019;47.638;18.966;2022-12-18T10:03:57;-0.56;91.11
71254;HTU21D;59019;47.638;18.966;2022-12-18T10:06:43;-0.58;92.21
71254;HTU21D;59019;47.638;18.966;2022-12-18T10:27:46;0.21;92.03
71254;HTU21D;59019;47.638;18.966;2022-12-18T10:30:21;0.25;89.45
71254;HTU21D;59019;47.638;18.966;2022-12-18T10:32:47;0.32;88.11
71254;HTU21D;59019;47.638;18.966;2022-12-18T10:35:26;0.32;87.44
71254;HTU21D;59019;47.638;18.966;2022-12-18T10:38:24;0.44;86.38
71254;HTU21D;59019;47.638;18.966;2022-12-18T10:43:38;0.54;83.41
71254;HTU21D;59019;47.638;18.966;2022-12-18T10:48:38;0.59;80.77
71254;HTU21D;59019;47.638;18.966;2022-12-18T10:51:06;0.68;80.05
71254;HTU21D;59019;47.638;18.966;2022-12-18T10:53:34;0.88;80.57
71254;HTU21D;59019;47.638;18.966;2022-12-18T10:56:02;1.37;84.24
71254;HTU21D;59019;47.638;18.966;2022-12-18T10:58:35;1.41;81.51
71254;HTU21D;59019;47.638;18.966;2022-12-18T11:01:14;1.71;79.99
71254;HTU21D;59019;47.638;18.966;2022-12-18T11:03:43;1.84;80.05
71254;HTU21D;59019;47.638;18.966;2022-12-18T11:06:14;1.93;78.37
71254;HTU21D;59019;47.638;18.966;2022-12-18T11:08:43;2.11;77.07
71254;HTU21D;59019;47.638;18.966;2022-12-18T11:11:35;2.34;77.55
71254;HTU21D;59019;47.638;18.966;2022-12-18T11:14:02;2.29;76.70
71254;HTU21D;59019;47.638;18.966;2022-12-18T11:16:33;2.40;76.57
71254;HTU21D;59019;47.638;18.966;2022-12-18T11:19:36;2.29;73.71
71254;HTU21D;59019;47.638;18.966;2022-12-18T11:22:17;2.51;75.48
71254;HTU21D;59019;47.638;18.966;2022-12-18T11:24:52;2.46;73.64
71254;HTU21D;59019;47.638;18.966;2022-12-18T11:27:18;2.68;73.60
71254;HTU21D;59019;47.638;18.966;2022-12-18T11:29:49;2.57;72.62
71254;HTU21D;59019;47.638;18.966;2022-12-18T11:34:51;3.31;77.22
71254;HTU21D;59019;47.638;18.966;2022-12-18T11:37:18;3.42;75.54
71254;HTU21D;59019;47.638;18.966;2022-12-18T11:40:09;3.38;72.09
71254;HTU21D;59019;47.638;18.966;2022-12-18T11:42:46;3.35;71.33
71254;HTU21D;59019;47.638;18.966;2022-12-18T11:45:30;3.50;72.47
71254;HTU21D;59019;47.638;18.966;2022-12-18T11:50:31;3.65;72.80
71254;HTU21D;59019;47.638;18.966;2022-12-18T11:52:58;3.73;71.49
71254;HTU21D;59019;47.638;18.966;2022-12-18T11:58:23;3.42;70.22
71254;HTU21D;59019;47.638;18.966;2022-12-18T12:04:27;3.42;74.96
71254;HTU21D;59019;47.638;18.966;2022-12-18T12:12:33;3.47;77.31
71254;HTU21D;59019;47.638;18.966;2022-12-18T12:20:47;3.18;83.54
71254;HTU21D;59019;47.638;18.966;2022-12-18T12:23:39;3.01;84.26
71254;HTU21D;59019;47.638;18.966;2022-12-18T12:28:59;2.78;84.63
71254;HTU21D;59019;47.638;18.966;2022-12-18T12:39:59;2.56;85.05
71254;HTU21D;59019;47.638;18.966;2022-12-18T12:42:41;2.56;84.19
71254;HTU21D;59019;47.638;18.966;2022-12-18T12:45:33;2.47;83.81
71254;HTU21D;59019;47.638;18.966;2022-12-18T12:48:02;2.45;84.03
71254;HTU21D;59019;47.638;18.966;2022-12-18T12:50:32;2.41;83.09
71254;HTU21D;59019;47.638;18.966;2022-12-18T12:53:01;2.39;83.00
71254;HTU21D;59019;47.638;18.966;2022-12-18T12:55:32;2.35;82.54
71254;HTU21D;59019;47.638;18.966;2022-12-18T12:58:14;2.24;82.08
71254;HTU21D;59019;47.638;18.966;2022-12-18T13:00:55;2.11;81.79
71254;HTU21D;59019;47.638;18.966;2022-12-18T13:08:59;1.36;83.05
71254;HTU21D;59019;47.638;18.966;2022-12-18T13:14:30;0.92;84.09
71254;HTU21D;59019;47.638;18.966;2022-12-18T13:20:04;0.55;85.88
71254;HTU21D;59019;47.638;18.966;2022-12-18T13:22:37;0.44;85.89
71254;HTU21D;59019;47.638;18.966;2022-12-18T13:28:00;0.27;87.74
71254;HTU21D;59019;47.638;18.966;2022-12-18T13:30:41;0.15;90.05
71254;HTU21D;59019;47.638;18.966;2022-12-18T13:38:55;0.02;91.60
71254;HTU21D;59019;47.638;18.966;2022-12-18T13:44:10;-0.05;89.79
71254;HTU21D;59019;47.638;18.966;2022-12-18T13:46:46;-0.07;91.24
71254;HTU21D;59019;47.638;18.966;2022-12-18T13:51:40;-0.28;88.70
71254;HTU21D;59019;47.638;18.966;2022-12-18T13:54:19;-0.34;88.62
71254;HTU21D;59019;47.638;18.966;2022-12-18T13:56:48;-0.41;89.79
71254;HTU21D;59019;47.638;18.966;2022-12-18T13:59:15;-0.57;89.50
71254;HTU21D;59019;47.638;18.966;2022-12-18T14:16:58;-1.09;95.63
71254;HTU21D;59019;47.638;18.966;2022-12-18T14:19:24;-1.23;94.17
71254;HTU21D;59019;47.638;18.966;2022-12-18T14:21:50;-1.30;92.44
71254;HTU21D;59019;47.638;18.966;2022-12-18T14:24:20;-1.35;91.74
71254;HTU21D;59019;47.638;18.966;2022-12-18T14:26:49;-1.41;91.92
71254;HTU21D;59019;47.638;18.966;2022-12-18T14:29:26;-1.34;94.30
71254;HTU21D;59019;47.638;18.966;2022-12-18T14:32:18;-1.23;95.81
71254;HTU21D;59019;47.638;18.966;2022-12-18T14:34:54;-0.35;102.09
71254;HTU21D;59019;47.638;18.966;2022-12-18T14:37:25;-0.55;99.87
71254;HTU21D;59019;47.638;18.966;2022-12-18T14:39:59;-0.76;97.28
71254;HTU21D;59019;47.638;18.966;2022-12-18T14:42:26;-0.79;95.50
71254;HTU21D;59019;47.638;18.966;2022-12-18T14:47:56;-1.06;91.24
71254;HTU21D;59019;47.638;18.966;2022-12-18T14:50:22;-1.19;90.85
71254;HTU21D;59019;47.638;18.966;2022-12-18T14:52:48;-1.36;90.80
71254;HTU21D;59019;47.638;18.966;2022-12-18T14:55:17;-1.43;91.01
71254;HTU21D;59019;47.638;18.966;2022-12-18T14:57:43;-1.57;90.79
71254;HTU21D;59019;47.638;18.966;2022-12-18T15:00:18;-1.67;91.26
71254;HTU21D;59019;47.638;18.966;2022-12-18T15:02:49;-1.68;91.21
71254;HTU21D;59019;47.638;18.966;2022-12-18T15:05:35;-1.78;91.39
71254;HTU21D;59019;47.638;18.966;2022-12-18T15:08:02;-1.84;91.48
71254;HTU21D;59019;47.638;18.966;2022-12-18T15:10:32;-1.90;91.39
71254;HTU21D;59019;47.638;18.966;2022-12-18T15:18:03;-2.03;91.46
71254;HTU21D;59019;47.638;18.966;2022-12-18T15:20:43;-1.99;91.86
71254;HTU21D;59019;47.638;18.966;2022-12-18T15:23:34;-2.08;91.54
71254;HTU21D;59019;47.638;18.966;2022-12-18T15:26:02;-2.13;91.24
71254;HTU21D;59019;47.638;18.966;2022-12-18T15:33:45;-2.28;91.04
71254;HTU21D;59019;47.638;18.966;2022-12-18T15:36:25;-2.42;91.04
71254;HTU21D;59019;47.638;18.966;2022-12-18T15:38:57;-2.52;91.12
71254;HTU21D;59019;47.638;18.966;2022-12-18T15:41:25;-2.62;91.89
71254;HTU21D;59019;47.638;18.966;2022-12-18T15:43:52;-2.64;92.34
71254;HTU21D;59019;47.638;18.966;2022-12-18T15:46:25;-2.76;92.54
71254;HTU21D;59019;47.638;18.966;2022-12-18T15:48:53;-2.76;92.74
71254;HTU21D;59019;47.638;18.966;2022-12-18T15:51:31;-2.78;92.65
71254;HTU21D;59019;47.638;18.966;2022-12-18T15:54:00;-2.86;93.01
71254;HTU21D;59019;47.638;18.966;2022-12-18T15:56:26;-2.93;93.11
71254;HTU21D;59019;47.638;18.966;2022-12-18T15:59:13;-2.96;94.16
71254;HTU21D;59019;47.638;18.966;2022-12-18T16:01:39;-2.97;96.04
71254;HTU21D;59019;47.638;18.966;2022-12-18T16:04:05;-2.89;97.35
71254;HTU21D;59019;47.638;18.966;2022-12-18T16:06:30;-2.87;98.71
71254;HTU21D;59019;47.638;18.966;2022-12-18T16:08:56;-2.81;99.28
71254;HTU21D;59019;47.638;18.966;2022-12-18T16:11:24;-2.84;98.61
71254;HTU21D;59019;47.638;18.966;2022-12-18T16:16:45;-2.90;95.58
71254;HTU21D;59019;47.638;18.966;2022-12-18T16:19:10;-2.95;94.69
71254;HTU21D;59019;47.638;18.966;2022-12-18T16:21:36;-2.98;94.26
71254;HTU21D;59019;47.638;18.966;2022-12-18T16:24:02;-3.07;93.80
71254;HTU21D;59019;47.638;18.966;2022-12-18T16:26:27;-3.07;95.01
71254;HTU21D;59019;47.638;18.966;2022-12-18T16:28:53;-3.02;97.12
71254;HTU21D;59019;47.638;18.966;2022-12-18T16:31:19;-2.94;99.13
71254;HTU21D;59019;47.638;18.966;2022-12-18T16:33:44;-2.94;99.49
71254;HTU21D;59019;47.638;18.966;2022-12-18T16:36:10;-2.97;98.86
71254;HTU21D;59019;47.638;18.966;2022-12-18T16:38:35;-2.94;98.35
71254;HTU21D;59019;47.638;18.966;2022-12-18T16:41:01;-2.95;98.45
71254;HTU21D;59019;47.638;18.966;2022-12-18T16:43:45;-2.98;97.94
71254;HTU21D;59019;47.638;18.966;2022-12-18T16:46:11;-3.18;95.91
71254;HTU21D;59019;47.638;18.966;2022-12-18T16:48:36;-3.17;95.41
71254;HTU21D;59019;47.638;18.966;2022-12-18T16:51:03;-3.20;94.95
71254;HTU21D;59019;47.638;18.966;2022-12-18T16:53:30;-3.25;94.33
71254;HTU21D;59019;47.638;18.966;2022-12-18T16:55:56;-3.32;94.27
71254;HTU21D;59019;47.638;18.966;2022-12-18T16:58:22;-3.34;94.13
71254;HTU21D;59019;47.638;18.966;2022-12-18T17:00:48;-3.47;93.49
71254;HTU21D;59019;47.638;18.966;2022-12-18T17:03:13;-3.45;93.40
71254;HTU21D;59019;47.638;18.966;2022-12-18T17:05:39;-3.49;92.92
71254;HTU21D;59019;47.638;18.966;2022-12-18T17:08:04;-3.55;92.59
71254;HTU21D;59019;47.638;18.966;2022-12-18T17:10:31;-3.66;93.23
71254;HTU21D;59019;47.638;18.966;2022-12-18T17:12:56;-3.79;94.17
71254;HTU21D;59019;47.638;18.966;2022-12-18T17:15:22;-3.81;94.97
71254;HTU21D;59019;47.638;18.966;2022-12-18T17:17:47;-3.80;95.18
71254;HTU21D;59019;47.638;18.966;2022-12-18T17:20:13;-3.83;96.26
71254;HTU21D;59019;47.638;18.966;2022-12-18T17:22:38;-3.82;97.13
71254;HTU21D;59019;47.638;18.966;2022-12-18T17:25:04;-3.84;98.03
71254;HTU21D;59019;47.638;18.966;2022-12-18T17:27:29;-3.76;100.25
71254;HTU21D;59019;47.638;18.966;2022-12-18T17:29:55;-3.74;101.27
71254;HTU21D;59019;47.638;18.966;2022-12-18T17:32:20;-3.72;101.12
71254;HTU21D;59019;47.638;18.966;2022-12-18T17:34:46;-3.70;100.49
71254;HTU21D;59019;47.638;18.966;2022-12-18T17:37:12;-3.76;99.63
71254;HTU21D;59019;47.638;18.966;2022-12-18T17:39:38;-3.76;98.96
71254;HTU21D;59019;47.638;18.966;2022-12-18T17:42:03;-3.76;98.15
71254;HTU21D;59019;47.638;18.966;2022-12-18T17:44:29;-3.89;97.86
71254;HTU21D;59019;47.638;18.966;2022-12-18T17:46:54;-3.92;98.10
71254;HTU21D;59019;47.638;18.966;2022-12-18T17:49:21;-3.94;97.81
71254;HTU21D;59019;47.638;18.966;2022-12-18T17:51:47;-3.93;97.29
71254;HTU21D;59019;47.638;18.966;2022-12-18T17:54:13;-3.97;96.77
71254;HTU21D;59019;47.638;18.966;2022-12-18T17:56:39;-4.09;96.06
71254;HTU21D;59019;47.638;18.966;2022-12-18T17:59:05;-4.20;95.46
71254;HTU21D;59019;47.638;18.966;2022-12-18T18:01:31;-4.22;95.48
71254;HTU21D;59019;47.638;18.966;2022-12-18T18:03:56;-4.01;95.56
71254;HTU21D;59019;47.638;18.966;2022-12-18T18:06:24;-4.20;95.30
71254;HTU21D;59019;47.638;18.966;2022-12-18T18:08:53;-4.37;94.78
71254;HTU21D;59019;47.638;18.966;2022-12-18T18:11:19;-4.42;94.67
71254;HTU21D;59019;47.638;18.966;2022-12-18T18:14:10;-4.56;95.90
71254;HTU21D;59019;47.638;18.966;2022-12-18T18:16:41;-4.58;96.61
71254;HTU21D;59019;47.638;18.966;2022-12-18T18:19:18;-4.56;97.16
71254;HTU21D;59019;47.638;18.966;2022-12-18T18:21:45;-4.58;96.99
71254;HTU21D;59019;47.638;18.966;2022-12-18T18:24:13;-4.69;96.49